sensor_id;sensor_type;location;lat;lon;timestamp;P1;durP1;ratioP1;P2;durP2;ratioP2
32469;SDS011;18925;48.356;10.864;2022-08-04T00:00:12;7.70;;;2.97;;
32469;SDS011;18925;48.356;10.864;2022-08-04T00:00:59;6.18;;;2.95;;
32469;SDS011;18925;48.356;10.864;2022-08-04T00:01:44;8.82;;;3.08;;
32469;SDS011;18925;48.356;10.864;2022-08-04T00:04:19;5.70;;;2.75;;
32469;SDS011;18925;48.356;10.864;2022-08-04T00:05:48;6.53;;;2.63;;
32469;SDS011;18925;48.356;10.864;2022-08-04T00:06:15;3.17;;;2.53;;
32469;SDS011;18925;48.356;10.864;2022-08-04T00:07:13;7.05;;;2.90;;
32469;SDS011;18925;48.356;10.864;2022-08-04T00:08:00;5.63;;;3.15;;
32469;SDS011;18925;48.356;10.864;2022-08-04T00:08:50;3.30;;;2.63;;
32469;SDS011;18925;48.356;10.864;2022-08-04T00:10:21;5.47;;;2.95;;
32469;SDS011;18925;48.356;10.864;2022-08-04T00:10:53;3.88;;;2.60;;
32469;SDS011;18925;48.356;10.864;2022-08-04T00:11:25;3.95;;;2.53;;
32469;SDS011;18925;48.356;10.864;2022-08-04T00:12:00;4.75;;;2.53;;
32469;SDS011;18925;48.356;10.864;2022-08-04T00:12:33;4.97;;;3.00;;
32469;SDS011;18925;48.356;10.864;2022-08-04T00:13:06;9.70;;;2.63;;
32469;SDS011;18925;48.356;10.864;2022-08-04T00:13:38;10.15;;;3.13;;
32469;SDS011;18925;48.356;10.864;2022-08-04T00:14:14;15.98;;;3.38;;
32469;SDS011;18925;48.356;10.864;2022-08-04T00:14:48;10.05;;;2.85;;
32469;SDS011;18925;48.356;10.864;2022-08-04T00:15:20;6.30;;;2.58;;
32469;SDS011;18925;48.356;10.864;2022-08-04T00:15:53;7.18;;;2.92;;
32469;SDS011;18925;48.356;10.864;2022-08-04T00:16:34;7.15;;;3.08;;
32469;SDS011;18925;48.356;10.864;2022-08-04T00:17:06;6.30;;;3.10;;
32469;SDS011;18925;48.356;10.864;2022-08-04T00:17:38;6.03;;;2.67;;
32469;SDS011;18925;48.356;10.864;2022-08-04T00:18:26;4.75;;;2.40;;
32469;SDS011;18925;48.356;10.864;2022-08-04T00:19:04;6.10;;;2.30;;
32469;SDS011;18925;48.356;10.864;2022-08-04T00:19:44;4.90;;;2.40;;
32469;SDS011;18925;48.356;10.864;2022-08-04T00:20:18;4.13;;;2.70;;
32469;SDS011;18925;48.356;10.864;2022-08-04T00:20:49;3.88;;;2.58;;
32469;SDS011;18925;48.356;10.864;2022-08-04T00:22:02;7.35;;;2.70;;
32469;SDS011;18925;48.356;10.864;2022-08-04T00:22:34;5.75;;;2.72;;
32469;SDS011;18925;48.356;10.864;2022-08-04T00:23:07;7.15;;;2.80;;
32469;SDS011;18925;48.356;10.864;2022-08-04T00:23:38;8.15;;;2.95;;
32469;SDS011;18925;48.356;10.864;2022-08-04T00:24:12;6.57;;;2.90;;
32469;SDS011;18925;48.356;10.864;2022-08-04T00:24:44;7.22;;;2.78;;
32469;SDS011;18925;48.356;10.864;2022-08-04T00:25:15;8.52;;;2.72;;
32469;SDS011;18925;48.356;10.864;2022-08-04T00:25:46;6.38;;;3.25;;
32469;SDS011;18925;48.356;10.864;2022-08-04T00:26:17;5.95;;;3.05;;
32469;SDS011;18925;48.356;10.864;2022-08-04T00:26:50;6.53;;;2.72;;
32469;SDS011;18925;48.356;10.864;2022-08-04T00:27:22;8.07;;;3.13;;
32469;SDS011;18925;48.356;10.864;2022-08-04T00:27:53;5.63;;;2.78;;
32469;SDS011;18925;48.356;10.864;2022-08-04T00:28:24;7.75;;;3.05;;
32469;SDS011;18925;48.356;10.864;2022-08-04T00:28:55;5.78;;;3.33;;
32469;SDS011;18925;48.356;10.864;2022-08-04T00:29:26;7.55;;;2.95;;
32469;SDS011;18925;48.356;10.864;2022-08-04T00:29:57;6.10;;;3.25;;
32469;SDS011;18925;48.356;10.864;2022-08-04T00:30:29;8.95;;;3.03;;
32469;SDS011;18925;48.356;10.864;2022-08-04T00:30:59;8.13;;;3.25;;
32469;SDS011;18925;48.356;10.864;2022-08-04T00:31:30;5.53;;;3.00;;
32469;SDS011;18925;48.356;10.864;2022-08-04T00:32:01;7.45;;;2.90;;
32469;SDS011;18925;48.356;10.864;2022-08-04T00:32:33;5.63;;;2.90;;
32469;SDS011;18925;48.356;10.864;2022-08-04T00:33:04;6.53;;;3.00;;
32469;SDS011;18925;48.356;10.864;2022-08-04T00:33:36;5.00;;;3.05;;
32469;SDS011;18925;48.356;10.864;2022-08-04T00:34:08;4.05;;;2.80;;
32469;SDS011;18925;48.356;10.864;2022-08-04T00:34:41;5.57;;;2.78;;
32469;SDS011;18925;48.356;10.864;2022-08-04T00:35:13;7.05;;;3.03;;
32469;SDS011;18925;48.356;10.864;2022-08-04T00:35:44;9.40;;;3.00;;
32469;SDS011;18925;48.356;10.864;2022-08-04T00:36:17;5.10;;;2.80;;
32469;SDS011;18925;48.356;10.864;2022-08-04T00:36:48;6.03;;;2.65;;
32469;SDS011;18925;48.356;10.864;2022-08-04T00:37:20;8.85;;;4.07;;
32469;SDS011;18925;48.356;10.864;2022-08-04T00:37:52;5.30;;;2.83;;
32469;SDS011;18925;48.356;10.864;2022-08-04T00:38:24;8.82;;;3.05;;
32469;SDS011;18925;48.356;10.864;2022-08-04T00:38:55;6.13;;;2.83;;
32469;SDS011;18925;48.356;10.864;2022-08-04T00:39:26;4.63;;;2.60;;
32469;SDS011;18925;48.356;10.864;2022-08-04T00:39:58;6.93;;;2.90;;
32469;SDS011;18925;48.356;10.864;2022-08-04T00:40:32;11.48;;;3.00;;
32469;SDS011;18925;48.356;10.864;2022-08-04T00:42:46;8.68;;;3.13;;
32469;SDS011;18925;48.356;10.864;2022-08-04T00:43:27;10.23;;;3.03;;
32469;SDS011;18925;48.356;10.864;2022-08-04T00:45:34;7.22;;;2.85;;
32469;SDS011;18925;48.356;10.864;2022-08-04T00:51:10;5.25;;;3.00;;
32469;SDS011;18925;48.356;10.864;2022-08-04T00:51:55;5.85;;;3.25;;
32469;SDS011;18925;48.356;10.864;2022-08-04T00:53:30;7.00;;;3.28;;
32469;SDS011;18925;48.356;10.864;2022-08-04T00:55:07;4.70;;;3.03;;
32469;SDS011;18925;48.356;10.864;2022-08-04T00:56:52;15.02;;;3.13;;
32469;SDS011;18925;48.356;10.864;2022-08-04T01:01:05;5.93;;;3.05;;
32469;SDS011;18925;48.356;10.864;2022-08-04T01:02:30;8.60;;;3.40;;
32469;SDS011;18925;48.356;10.864;2022-08-04T01:03:08;7.63;;;3.28;;
32469;SDS011;18925;48.356;10.864;2022-08-04T01:04:42;6.88;;;3.00;;
32469;SDS011;18925;48.356;10.864;2022-08-04T01:05:30;8.48;;;3.00;;
32469;SDS011;18925;48.356;10.864;2022-08-04T01:06:38;6.45;;;3.28;;
32469;SDS011;18925;48.356;10.864;2022-08-04T01:07:31;5.60;;;3.10;;
32469;SDS011;18925;48.356;10.864;2022-08-04T01:08:56;6.30;;;3.10;;
32469;SDS011;18925;48.356;10.864;2022-08-04T01:14:14;7.80;;;3.70;;
32469;SDS011;18925;48.356;10.864;2022-08-04T01:15:17;5.45;;;3.67;;
32469;SDS011;18925;48.356;10.864;2022-08-04T01:16:15;7.32;;;3.90;;
32469;SDS011;18925;48.356;10.864;2022-08-04T01:16:51;12.68;;;4.07;;
32469;SDS011;18925;48.356;10.864;2022-08-04T01:18:26;6.53;;;3.67;;
32469;SDS011;18925;48.356;10.864;2022-08-04T01:19:09;4.75;;;3.50;;
32469;SDS011;18925;48.356;10.864;2022-08-04T01:20:07;8.07;;;3.63;;
32469;SDS011;18925;48.356;10.864;2022-08-04T01:20:48;5.30;;;3.22;;
32469;SDS011;18925;48.356;10.864;2022-08-04T01:22:08;7.70;;;3.60;;
32469;SDS011;18925;48.356;10.864;2022-08-04T01:23:41;4.68;;;3.30;;
32469;SDS011;18925;48.356;10.864;2022-08-04T01:26:05;7.53;;;3.33;;
32469;SDS011;18925;48.356;10.864;2022-08-04T01:29:09;7.47;;;3.28;;
32469;SDS011;18925;48.356;10.864;2022-08-04T01:29:46;7.45;;;3.40;;
32469;SDS011;18925;48.356;10.864;2022-08-04T01:30:24;7.35;;;3.33;;
32469;SDS011;18925;48.356;10.864;2022-08-04T01:30:56;5.65;;;3.47;;
32469;SDS011;18925;48.356;10.864;2022-08-04T01:32:19;6.72;;;4.20;;
32469;SDS011;18925;48.356;10.864;2022-08-04T01:33:07;7.82;;;6.10;;
32469;SDS011;18925;48.356;10.864;2022-08-04T01:33:41;9.32;;;5.47;;
32469;SDS011;18925;48.356;10.864;2022-08-04T01:34:18;11.60;;;4.80;;
32469;SDS011;18925;48.356;10.864;2022-08-04T01:34:55;15.57;;;4.57;;
32469;SDS011;18925;48.356;10.864;2022-08-04T01:35:35;16.15;;;4.30;;
32469;SDS011;18925;48.356;10.864;2022-08-04T01:36:13;14.05;;;4.72;;
32469;SDS011;18925;48.356;10.864;2022-08-04T01:36:45;6.75;;;4.00;;
32469;SDS011;18925;48.356;10.864;2022-08-04T01:37:28;5.07;;;3.35;;
32469;SDS011;18925;48.356;10.864;2022-08-04T01:38:53;6.10;;;3.83;;
32469;SDS011;18925;48.356;10.864;2022-08-04T01:39:25;8.00;;;3.50;;
32469;SDS011;18925;48.356;10.864;2022-08-04T01:40:12;8.48;;;3.88;;
32469;SDS011;18925;48.356;10.864;2022-08-04T01:40:44;10.55;;;3.75;;
32469;SDS011;18925;48.356;10.864;2022-08-04T01:41:17;10.25;;;3.80;;
32469;SDS011;18925;48.356;10.864;2022-08-04T01:41:48;6.68;;;3.80;;
32469;SDS011;18925;48.356;10.864;2022-08-04T01:42:24;6.88;;;3.80;;
32469;SDS011;18925;48.356;10.864;2022-08-04T01:42:55;8.63;;;4.10;;
32469;SDS011;18925;48.356;10.864;2022-08-04T01:43:29;6.18;;;4.07;;
32469;SDS011;18925;48.356;10.864;2022-08-04T01:44:01;9.98;;;3.63;;
32469;SDS011;18925;48.356;10.864;2022-08-04T01:44:34;8.48;;;4.25;;
32469;SDS011;18925;48.356;10.864;2022-08-04T01:45:10;9.85;;;4.28;;
32469;SDS011;18925;48.356;10.864;2022-08-04T01:45:41;6.07;;;3.67;;
32469;SDS011;18925;48.356;10.864;2022-08-04T01:46:17;7.22;;;4.07;;
32469;SDS011;18925;48.356;10.864;2022-08-04T01:46:50;7.85;;;4.20;;
32469;SDS011;18925;48.356;10.864;2022-08-04T01:47:22;7.82;;;3.83;;
32469;SDS011;18925;48.356;10.864;2022-08-04T01:47:57;4.78;;;3.85;;
32469;SDS011;18925;48.356;10.864;2022-08-04T01:48:29;10.25;;;3.70;;
32469;SDS011;18925;48.356;10.864;2022-08-04T01:49:01;10.85;;;3.63;;
32469;SDS011;18925;48.356;10.864;2022-08-04T01:49:32;8.02;;;3.72;;
32469;SDS011;18925;48.356;10.864;2022-08-04T01:50:12;4.85;;;3.30;;
32469;SDS011;18925;48.356;10.864;2022-08-04T01:50:43;5.90;;;3.70;;
32469;SDS011;18925;48.356;10.864;2022-08-04T01:51:15;5.65;;;3.28;;
32469;SDS011;18925;48.356;10.864;2022-08-04T01:51:48;8.90;;;3.33;;
32469;SDS011;18925;48.356;10.864;2022-08-04T01:52:21;5.65;;;3.22;;
32469;SDS011;18925;48.356;10.864;2022-08-04T01:52:53;6.32;;;3.40;;
32469;SDS011;18925;48.356;10.864;2022-08-04T01:53:29;7.15;;;3.55;;
32469;SDS011;18925;48.356;10.864;2022-08-04T01:54:02;5.72;;;3.28;;
32469;SDS011;18925;48.356;10.864;2022-08-04T01:54:32;4.50;;;3.42;;
32469;SDS011;18925;48.356;10.864;2022-08-04T01:55:09;6.32;;;3.33;;
32469;SDS011;18925;48.356;10.864;2022-08-04T01:55:42;10.18;;;3.70;;
32469;SDS011;18925;48.356;10.864;2022-08-04T01:56:14;9.20;;;3.53;;
32469;SDS011;18925;48.356;10.864;2022-08-04T01:56:46;6.45;;;3.85;;
32469;SDS011;18925;48.356;10.864;2022-08-04T01:57:19;7.50;;;4.40;;
32469;SDS011;18925;48.356;10.864;2022-08-04T01:57:51;7.28;;;4.00;;
32469;SDS011;18925;48.356;10.864;2022-08-04T01:58:23;8.88;;;4.45;;
32469;SDS011;18925;48.356;10.864;2022-08-04T01:58:56;9.57;;;4.05;;
32469;SDS011;18925;48.356;10.864;2022-08-04T01:59:27;10.25;;;3.97;;
32469;SDS011;18925;48.356;10.864;2022-08-04T01:59:59;6.97;;;3.75;;
32469;SDS011;18925;48.356;10.864;2022-08-04T02:00:31;5.68;;;3.50;;
32469;SDS011;18925;48.356;10.864;2022-08-04T02:01:36;4.68;;;3.72;;
32469;SDS011;18925;48.356;10.864;2022-08-04T02:02:07;8.40;;;3.63;;
32469;SDS011;18925;48.356;10.864;2022-08-04T02:02:38;5.55;;;3.40;;
32469;SDS011;18925;48.356;10.864;2022-08-04T02:03:09;3.75;;;3.10;;
32469;SDS011;18925;48.356;10.864;2022-08-04T02:03:43;8.93;;;3.55;;
32469;SDS011;18925;48.356;10.864;2022-08-04T02:04:16;4.90;;;3.50;;
32469;SDS011;18925;48.356;10.864;2022-08-04T02:04:49;7.07;;;3.60;;
32469;SDS011;18925;48.356;10.864;2022-08-04T02:05:22;5.47;;;3.42;;
32469;SDS011;18925;48.356;10.864;2022-08-04T02:05:57;5.70;;;3.55;;
32469;SDS011;18925;48.356;10.864;2022-08-04T02:07:01;8.32;;;3.53;;
32469;SDS011;18925;48.356;10.864;2022-08-04T02:10:12;7.22;;;3.55;;
32469;SDS011;18925;48.356;10.864;2022-08-04T02:11:27;5.75;;;3.38;;
32469;SDS011;18925;48.356;10.864;2022-08-04T02:12:09;3.95;;;2.95;;
32469;SDS011;18925;48.356;10.864;2022-08-04T02:12:57;7.22;;;3.13;;
32469;SDS011;18925;48.356;10.864;2022-08-04T02:14:26;5.65;;;3.40;;
32469;SDS011;18925;48.356;10.864;2022-08-04T02:15:27;7.57;;;4.55;;
32469;SDS011;18925;48.356;10.864;2022-08-04T02:17:21;13.02;;;4.85;;
32469;SDS011;18925;48.356;10.864;2022-08-04T02:18:44;7.50;;;4.22;;
32469;SDS011;18925;48.356;10.864;2022-08-04T02:19:34;13.13;;;5.05;;
32469;SDS011;18925;48.356;10.864;2022-08-04T02:20:27;8.15;;;3.83;;
32469;SDS011;18925;48.356;10.864;2022-08-04T02:21:07;6.03;;;4.20;;
32469;SDS011;18925;48.356;10.864;2022-08-04T02:21:39;6.47;;;4.10;;
32469;SDS011;18925;48.356;10.864;2022-08-04T02:22:13;7.47;;;3.47;;
32469;SDS011;18925;48.356;10.864;2022-08-04T02:22:51;10.10;;;4.28;;
32469;SDS011;18925;48.356;10.864;2022-08-04T02:23:35;5.43;;;4.05;;
32469;SDS011;18925;48.356;10.864;2022-08-04T02:24:08;5.05;;;4.00;;
32469;SDS011;18925;48.356;10.864;2022-08-04T02:24:50;8.63;;;3.85;;
32469;SDS011;18925;48.356;10.864;2022-08-04T02:25:39;13.88;;;4.30;;
32469;SDS011;18925;48.356;10.864;2022-08-04T02:26:23;12.10;;;4.25;;
32469;SDS011;18925;48.356;10.864;2022-08-04T02:26:57;5.57;;;3.83;;
32469;SDS011;18925;48.356;10.864;2022-08-04T02:27:37;7.93;;;4.10;;
32469;SDS011;18925;48.356;10.864;2022-08-04T02:28:39;6.63;;;3.63;;
32469;SDS011;18925;48.356;10.864;2022-08-04T02:29:24;7.88;;;3.90;;
32469;SDS011;18925;48.356;10.864;2022-08-04T02:30:05;6.50;;;3.72;;
32469;SDS011;18925;48.356;10.864;2022-08-04T02:30:39;6.35;;;4.00;;
32469;SDS011;18925;48.356;10.864;2022-08-04T02:31:32;9.05;;;3.70;;
32469;SDS011;18925;48.356;10.864;2022-08-04T02:32:25;4.93;;;3.40;;
32469;SDS011;18925;48.356;10.864;2022-08-04T02:32:59;5.47;;;3.70;;
32469;SDS011;18925;48.356;10.864;2022-08-04T02:33:36;6.53;;;3.58;;
32469;SDS011;18925;48.356;10.864;2022-08-04T02:35:19;9.52;;;3.50;;
32469;SDS011;18925;48.356;10.864;2022-08-04T02:35:58;10.40;;;3.80;;
32469;SDS011;18925;48.356;10.864;2022-08-04T02:36:34;7.45;;;3.88;;
32469;SDS011;18925;48.356;10.864;2022-08-04T02:37:09;9.15;;;4.00;;
32469;SDS011;18925;48.356;10.864;2022-08-04T02:37:45;9.25;;;3.75;;
32469;SDS011;18925;48.356;10.864;2022-08-04T02:38:23;10.65;;;3.80;;
32469;SDS011;18925;48.356;10.864;2022-08-04T02:39:01;7.20;;;4.00;;
32469;SDS011;18925;48.356;10.864;2022-08-04T02:39:35;9.05;;;3.40;;
32469;SDS011;18925;48.356;10.864;2022-08-04T02:40:06;9.05;;;4.20;;
32469;SDS011;18925;48.356;10.864;2022-08-04T02:40:40;5.35;;;3.20;;
32469;SDS011;18925;48.356;10.864;2022-08-04T02:41:12;5.97;;;3.80;;
32469;SDS011;18925;48.356;10.864;2022-08-04T02:41:49;8.52;;;4.15;;
32469;SDS011;18925;48.356;10.864;2022-08-04T02:42:23;7.10;;;3.70;;
32469;SDS011;18925;48.356;10.864;2022-08-04T02:42:54;6.07;;;3.60;;
32469;SDS011;18925;48.356;10.864;2022-08-04T02:43:27;6.35;;;3.67;;
32469;SDS011;18925;48.356;10.864;2022-08-04T02:44:00;5.78;;;3.88;;
32469;SDS011;18925;48.356;10.864;2022-08-04T02:44:35;6.72;;;3.75;;
32469;SDS011;18925;48.356;10.864;2022-08-04T02:45:07;4.65;;;3.38;;
32469;SDS011;18925;48.356;10.864;2022-08-04T02:45:40;6.97;;;3.47;;
32469;SDS011;18925;48.356;10.864;2022-08-04T02:46:12;4.38;;;3.75;;
32469;SDS011;18925;48.356;10.864;2022-08-04T02:46:45;6.90;;;3.72;;
32469;SDS011;18925;48.356;10.864;2022-08-04T02:47:20;5.32;;;3.30;;
32469;SDS011;18925;48.356;10.864;2022-08-04T02:47:51;8.27;;;3.88;;
32469;SDS011;18925;48.356;10.864;2022-08-04T02:48:23;7.55;;;3.70;;
32469;SDS011;18925;48.356;10.864;2022-08-04T02:48:56;5.90;;;3.88;;
32469;SDS011;18925;48.356;10.864;2022-08-04T02:49:27;6.18;;;3.53;;
32469;SDS011;18925;48.356;10.864;2022-08-04T02:49:59;7.65;;;3.45;;
32469;SDS011;18925;48.356;10.864;2022-08-04T02:50:33;5.00;;;3.47;;
32469;SDS011;18925;48.356;10.864;2022-08-04T02:51:04;8.18;;;3.50;;
32469;SDS011;18925;48.356;10.864;2022-08-04T02:51:37;10.02;;;4.00;;
32469;SDS011;18925;48.356;10.864;2022-08-04T02:52:12;6.80;;;3.95;;
32469;SDS011;18925;48.356;10.864;2022-08-04T02:52:43;13.88;;;4.18;;
32469;SDS011;18925;48.356;10.864;2022-08-04T02:53:15;5.10;;;3.42;;
32469;SDS011;18925;48.356;10.864;2022-08-04T02:53:51;8.70;;;3.80;;
32469;SDS011;18925;48.356;10.864;2022-08-04T02:54:24;7.38;;;3.70;;
32469;SDS011;18925;48.356;10.864;2022-08-04T02:54:58;7.60;;;3.80;;
32469;SDS011;18925;48.356;10.864;2022-08-04T02:55:31;6.57;;;3.85;;
32469;SDS011;18925;48.356;10.864;2022-08-04T02:56:02;6.53;;;3.80;;
32469;SDS011;18925;48.356;10.864;2022-08-04T02:56:36;6.07;;;4.00;;
32469;SDS011;18925;48.356;10.864;2022-08-04T02:57:08;7.13;;;4.25;;
32469;SDS011;18925;48.356;10.864;2022-08-04T02:57:41;8.70;;;3.80;;
32469;SDS011;18925;48.356;10.864;2022-08-04T02:58:16;8.38;;;4.35;;
32469;SDS011;18925;48.356;10.864;2022-08-04T02:58:55;9.02;;;3.60;;
32469;SDS011;18925;48.356;10.864;2022-08-04T02:59:29;6.07;;;3.70;;
32469;SDS011;18925;48.356;10.864;2022-08-04T03:00:26;4.65;;;3.60;;
32469;SDS011;18925;48.356;10.864;2022-08-04T03:00:58;7.85;;;3.58;;
32469;SDS011;18925;48.356;10.864;2022-08-04T03:01:28;7.78;;;3.75;;
32469;SDS011;18925;48.356;10.864;2022-08-04T03:02:00;8.48;;;3.60;;
32469;SDS011;18925;48.356;10.864;2022-08-04T03:02:33;10.50;;;4.20;;
32469;SDS011;18925;48.356;10.864;2022-08-04T03:03:20;18.95;;;3.70;;
32469;SDS011;18925;48.356;10.864;2022-08-04T03:04:03;8.05;;;3.60;;
32469;SDS011;18925;48.356;10.864;2022-08-04T03:08:20;7.75;;;4.13;;
32469;SDS011;18925;48.356;10.864;2022-08-04T03:12:04;8.25;;;4.22;;
32469;SDS011;18925;48.356;10.864;2022-08-04T03:14:42;6.72;;;4.00;;
32469;SDS011;18925;48.356;10.864;2022-08-04T03:19:51;7.40;;;3.78;;
32469;SDS011;18925;48.356;10.864;2022-08-04T03:21:04;9.60;;;3.83;;
32469;SDS011;18925;48.356;10.864;2022-08-04T03:22:06;7.05;;;3.90;;
32469;SDS011;18925;48.356;10.864;2022-08-04T03:24:56;5.68;;;4.20;;
32469;SDS011;18925;48.356;10.864;2022-08-04T03:25:37;8.25;;;4.15;;
32469;SDS011;18925;48.356;10.864;2022-08-04T03:30:17;6.82;;;4.22;;
32469;SDS011;18925;48.356;10.864;2022-08-04T03:34:21;6.93;;;4.78;;
32469;SDS011;18925;48.356;10.864;2022-08-04T03:35:29;10.77;;;5.45;;
32469;SDS011;18925;48.356;10.864;2022-08-04T03:36:47;11.02;;;4.90;;
32469;SDS011;18925;48.356;10.864;2022-08-04T03:38:14;10.18;;;4.68;;
32469;SDS011;18925;48.356;10.864;2022-08-04T03:41:21;9.95;;;5.07;;
32469;SDS011;18925;48.356;10.864;2022-08-04T03:42:33;11.23;;;5.63;;
32469;SDS011;18925;48.356;10.864;2022-08-04T03:46:25;9.23;;;4.78;;
32469;SDS011;18925;48.356;10.864;2022-08-04T03:47:24;9.88;;;4.93;;
32469;SDS011;18925;48.356;10.864;2022-08-04T03:48:08;10.18;;;5.35;;
32469;SDS011;18925;48.356;10.864;2022-08-04T03:51:17;11.38;;;5.25;;
32469;SDS011;18925;48.356;10.864;2022-08-04T03:52:42;7.18;;;4.97;;
32469;SDS011;18925;48.356;10.864;2022-08-04T03:53:43;7.10;;;5.75;;
32469;SDS011;18925;48.356;10.864;2022-08-04T03:59:42;7.93;;;4.78;;
32469;SDS011;18925;48.356;10.864;2022-08-04T04:00:20;8.73;;;4.30;;
32469;SDS011;18925;48.356;10.864;2022-08-04T04:03:18;7.05;;;4.50;;
32469;SDS011;18925;48.356;10.864;2022-08-04T04:07:11;8.63;;;4.90;;
32469;SDS011;18925;48.356;10.864;2022-08-04T04:08:16;8.23;;;4.47;;
32469;SDS011;18925;48.356;10.864;2022-08-04T04:12:26;16.27;;;5.30;;
32469;SDS011;18925;48.356;10.864;2022-08-04T04:14:16;13.55;;;5.90;;
32469;SDS011;18925;48.356;10.864;2022-08-04T04:22:02;13.27;;;5.10;;
32469;SDS011;18925;48.356;10.864;2022-08-04T04:25:10;7.65;;;5.13;;
32469;SDS011;18925;48.356;10.864;2022-08-04T04:26:03;11.75;;;5.10;;
32469;SDS011;18925;48.356;10.864;2022-08-04T04:26:51;10.43;;;5.20;;
32469;SDS011;18925;48.356;10.864;2022-08-04T04:27:36;12.63;;;5.22;;
32469;SDS011;18925;48.356;10.864;2022-08-04T04:29:13;11.27;;;5.53;;
32469;SDS011;18925;48.356;10.864;2022-08-04T04:32:08;15.18;;;4.85;;
32469;SDS011;18925;48.356;10.864;2022-08-04T04:33:06;8.50;;;4.93;;
32469;SDS011;18925;48.356;10.864;2022-08-04T04:34:21;12.35;;;5.00;;
32469;SDS011;18925;48.356;10.864;2022-08-04T04:35:42;9.30;;;4.93;;
32469;SDS011;18925;48.356;10.864;2022-08-04T04:36:29;6.57;;;4.82;;
32469;SDS011;18925;48.356;10.864;2022-08-04T04:37:28;12.35;;;5.10;;
32469;SDS011;18925;48.356;10.864;2022-08-04T04:38:26;8.43;;;4.82;;
32469;SDS011;18925;48.356;10.864;2022-08-04T04:39:14;9.23;;;4.78;;
32469;SDS011;18925;48.356;10.864;2022-08-04T04:45:11;11.27;;;5.15;;
32469;SDS011;18925;48.356;10.864;2022-08-04T04:46:47;11.10;;;5.47;;
32469;SDS011;18925;48.356;10.864;2022-08-04T04:47:32;11.70;;;5.15;;
32469;SDS011;18925;48.356;10.864;2022-08-04T04:49:16;9.82;;;5.18;;
32469;SDS011;18925;48.356;10.864;2022-08-04T04:52:44;11.27;;;5.22;;
32469;SDS011;18925;48.356;10.864;2022-08-04T04:54:29;8.85;;;5.40;;
32469;SDS011;18925;48.356;10.864;2022-08-04T04:55:54;8.25;;;5.18;;
32469;SDS011;18925;48.356;10.864;2022-08-04T04:56:52;12.57;;;5.10;;
32469;SDS011;18925;48.356;10.864;2022-08-04T04:57:47;15.65;;;5.32;;
32469;SDS011;18925;48.356;10.864;2022-08-04T04:58:21;9.48;;;5.18;;
32469;SDS011;18925;48.356;10.864;2022-08-04T04:58:53;12.30;;;4.95;;
32469;SDS011;18925;48.356;10.864;2022-08-04T04:59:26;7.07;;;4.50;;
32469;SDS011;18925;48.356;10.864;2022-08-04T05:00:04;11.43;;;4.63;;
32469;SDS011;18925;48.356;10.864;2022-08-04T05:01:31;10.35;;;5.15;;
32469;SDS011;18925;48.356;10.864;2022-08-04T05:04:41;9.13;;;5.10;;
32469;SDS011;18925;48.356;10.864;2022-08-04T05:06:36;11.88;;;5.18;;
32469;SDS011;18925;48.356;10.864;2022-08-04T05:08:26;8.95;;;4.88;;
32469;SDS011;18925;48.356;10.864;2022-08-04T05:10:06;11.07;;;5.13;;
32469;SDS011;18925;48.356;10.864;2022-08-04T05:14:22;9.40;;;5.32;;
32469;SDS011;18925;48.356;10.864;2022-08-04T05:14:40;9.20;;;4.78;;
32469;SDS011;18925;48.356;10.864;2022-08-04T05:15:15;11.82;;;5.13;;
32469;SDS011;18925;48.356;10.864;2022-08-04T05:15:48;8.65;;;4.75;;
32469;SDS011;18925;48.356;10.864;2022-08-04T05:16:24;7.10;;;4.90;;
32469;SDS011;18925;48.356;10.864;2022-08-04T05:17:14;11.52;;;5.75;;
32469;SDS011;18925;48.356;10.864;2022-08-04T05:17:51;7.95;;;5.25;;
32469;SDS011;18925;48.356;10.864;2022-08-04T05:18:25;9.23;;;4.97;;
32469;SDS011;18925;48.356;10.864;2022-08-04T05:19:07;8.90;;;5.47;;
32469;SDS011;18925;48.356;10.864;2022-08-04T05:20:54;11.55;;;4.95;;
32469;SDS011;18925;48.356;10.864;2022-08-04T05:21:36;8.68;;;4.55;;
32469;SDS011;18925;48.356;10.864;2022-08-04T05:22:17;8.07;;;4.82;;
32469;SDS011;18925;48.356;10.864;2022-08-04T05:23:08;9.52;;;5.32;;
32469;SDS011;18925;48.356;10.864;2022-08-04T05:23:43;11.23;;;5.43;;
32469;SDS011;18925;48.356;10.864;2022-08-04T05:24:18;7.45;;;5.22;;
32469;SDS011;18925;48.356;10.864;2022-08-04T05:24:54;8.13;;;4.97;;
32469;SDS011;18925;48.356;10.864;2022-08-04T05:25:34;10.00;;;5.07;;
32469;SDS011;18925;48.356;10.864;2022-08-04T05:26:23;11.85;;;5.45;;
32469;SDS011;18925;48.356;10.864;2022-08-04T05:27:01;7.65;;;4.78;;
32469;SDS011;18925;48.356;10.864;2022-08-04T05:27:37;10.25;;;5.03;;
32469;SDS011;18925;48.356;10.864;2022-08-04T05:28:15;13.35;;;5.00;;
32469;SDS011;18925;48.356;10.864;2022-08-04T05:29:16;8.10;;;4.85;;
32469;SDS011;18925;48.356;10.864;2022-08-04T05:30:08;12.05;;;5.35;;
32469;SDS011;18925;48.356;10.864;2022-08-04T05:30:43;9.20;;;5.00;;
32469;SDS011;18925;48.356;10.864;2022-08-04T05:31:19;13.57;;;5.55;;
32469;SDS011;18925;48.356;10.864;2022-08-04T05:31:53;8.90;;;4.80;;
32469;SDS011;18925;48.356;10.864;2022-08-04T05:32:28;11.93;;;5.22;;
32469;SDS011;18925;48.356;10.864;2022-08-04T05:33:08;7.63;;;5.30;;
32469;SDS011;18925;48.356;10.864;2022-08-04T05:33:51;10.00;;;4.97;;
32469;SDS011;18925;48.356;10.864;2022-08-04T05:34:42;10.77;;;5.10;;
32469;SDS011;18925;48.356;10.864;2022-08-04T05:35:23;8.93;;;5.40;;
32469;SDS011;18925;48.356;10.864;2022-08-04T05:36:02;7.82;;;4.93;;
32469;SDS011;18925;48.356;10.864;2022-08-04T05:36:39;16.02;;;5.55;;
32469;SDS011;18925;48.356;10.864;2022-08-04T05:37:18;12.55;;;4.82;;
32469;SDS011;18925;48.356;10.864;2022-08-04T05:37:51;10.63;;;4.75;;
32469;SDS011;18925;48.356;10.864;2022-08-04T05:38:26;9.95;;;5.60;;
32469;SDS011;18925;48.356;10.864;2022-08-04T05:39:03;15.80;;;5.55;;
32469;SDS011;18925;48.356;10.864;2022-08-04T05:39:40;11.07;;;5.07;;
32469;SDS011;18925;48.356;10.864;2022-08-04T05:40:13;12.43;;;5.35;;
32469;SDS011;18925;48.356;10.864;2022-08-04T05:40:48;9.85;;;5.30;;
32469;SDS011;18925;48.356;10.864;2022-08-04T05:41:19;7.15;;;4.93;;
32469;SDS011;18925;48.356;10.864;2022-08-04T05:41:51;9.07;;;5.13;;
32469;SDS011;18925;48.356;10.864;2022-08-04T05:42:22;11.43;;;5.00;;
32469;SDS011;18925;48.356;10.864;2022-08-04T05:42:55;8.77;;;5.43;;
32469;SDS011;18925;48.356;10.864;2022-08-04T05:43:26;17.25;;;5.47;;
32469;SDS011;18925;48.356;10.864;2022-08-04T05:43:57;8.05;;;4.97;;
32469;SDS011;18925;48.356;10.864;2022-08-04T05:44:29;12.48;;;5.07;;
32469;SDS011;18925;48.356;10.864;2022-08-04T05:45:02;10.50;;;5.20;;
32469;SDS011;18925;48.356;10.864;2022-08-04T05:45:34;17.10;;;5.88;;
32469;SDS011;18925;48.356;10.864;2022-08-04T05:46:05;10.07;;;5.00;;
32469;SDS011;18925;48.356;10.864;2022-08-04T05:46:37;14.50;;;5.28;;
32469;SDS011;18925;48.356;10.864;2022-08-04T05:47:09;12.90;;;4.70;;
32469;SDS011;18925;48.356;10.864;2022-08-04T05:47:41;9.88;;;5.15;;
32469;SDS011;18925;48.356;10.864;2022-08-04T05:48:13;8.73;;;4.60;;
32469;SDS011;18925;48.356;10.864;2022-08-04T05:48:44;8.65;;;5.10;;
32469;SDS011;18925;48.356;10.864;2022-08-04T05:49:16;21.98;;;5.28;;
32469;SDS011;18925;48.356;10.864;2022-08-04T05:49:48;10.82;;;4.93;;
32469;SDS011;18925;48.356;10.864;2022-08-04T05:50:19;10.45;;;5.40;;
32469;SDS011;18925;48.356;10.864;2022-08-04T05:50:50;6.68;;;4.85;;
32469;SDS011;18925;48.356;10.864;2022-08-04T05:51:22;7.75;;;4.70;;
32469;SDS011;18925;48.356;10.864;2022-08-04T05:51:54;6.72;;;4.72;;